createdAt,value
2019-03-22T00:00:21.970Z,15.45
2019-03-22T00:02:51.423Z,17.10
2019-03-22T00:05:21.013Z,16.62
2019-03-22T00:07:50.613Z,15.20
2019-03-22T00:10:26.090Z,13.88
2019-03-22T00:12:55.646Z,15.10
2019-03-22T00:15:26.281Z,15.28
2019-03-22T00:17:55.765Z,16.40
2019-03-22T00:20:26.363Z,15.48
2019-03-22T00:22:55.789Z,16.45
2019-03-22T00:25:25.377Z,12.28
2019-03-22T00:27:54.786Z,17.75
2019-03-22T00:30:25.319Z,16.82
2019-03-22T00:32:55.934Z,17.27
2019-03-22T00:35:25.529Z,16.82
2019-03-22T00:37:54.955Z,13.58
2019-03-22T00:40:25.452Z,15.65
2019-03-22T00:42:55.033Z,13.25
2019-03-22T00:45:26.456Z,17.30
2019-03-22T00:47:56.877Z,15.45
2019-03-22T00:50:26.351Z,15.63
2019-03-22T00:53:03.008Z,16.05
2019-03-22T00:55:34.568Z,16.67
2019-03-22T00:58:05.170Z,19.52
2019-03-22T01:00:36.672Z,19.15
2019-03-22T01:03:07.206Z,16.45
2019-03-22T01:05:37.898Z,15.53
2019-03-22T01:08:07.430Z,21.87
2019-03-22T01:10:43.691Z,17.17
2019-03-22T01:13:13.803Z,16.12
2019-03-22T01:15:45.518Z,17.05
2019-03-22T01:18:15.082Z,15.72
2019-03-22T01:20:45.534Z,16.00
2019-03-22T01:23:15.056Z,16.67
2019-03-22T01:25:44.697Z,17.40
2019-03-22T01:28:14.174Z,14.03
2019-03-22T01:30:44.650Z,17.75
2019-03-22T01:33:14.163Z,15.83
2019-03-22T01:35:43.589Z,16.32
2019-03-22T01:38:13.043Z,15.68
2019-03-22T01:40:48.589Z,18.10
2019-03-22T01:43:20.237Z,19.92
2019-03-22T01:45:49.753Z,27.02
2019-03-22T01:48:20.240Z,17.62
2019-03-22T01:50:50.033Z,17.27
2019-03-22T01:53:19.619Z,19.87
2019-03-22T01:55:49.031Z,17.15
2019-03-22T01:58:20.590Z,15.15
2019-03-22T02:00:51.152Z,23.35
2019-03-22T02:03:20.717Z,15.20
2019-03-22T02:05:51.309Z,17.02
2019-03-22T02:08:21.017Z,15.05
2019-03-22T02:10:50.581Z,17.00
2019-03-22T02:13:20.936Z,17.02
2019-03-22T02:15:51.786Z,18.25
2019-03-22T02:18:21.230Z,16.12
2019-03-22T02:20:51.822Z,16.62
2019-03-22T02:23:21.323Z,20.25
2019-03-22T02:25:52.746Z,17.30
2019-03-22T02:28:23.221Z,22.17
2019-03-22T02:30:52.733Z,19.50
2019-03-22T02:33:22.166Z,19.67
2019-03-22T02:35:51.775Z,16.37
2019-03-22T02:38:21.150Z,20.68
2019-03-22T02:40:56.605Z,15.98
2019-03-22T02:43:27.041Z,20.00
2019-03-22T02:45:56.617Z,17.75
2019-03-22T02:48:26.041Z,17.40
2019-03-22T02:51:01.559Z,18.12
2019-03-22T02:53:30.998Z,17.15
2019-03-22T02:56:00.673Z,19.15
2019-03-22T02:58:30.265Z,19.92
2019-03-22T03:00:59.865Z,19.07
2019-03-22T03:03:31.357Z,19.45
2019-03-22T03:06:00.921Z,15.60
2019-03-22T03:08:30.431Z,19.57
2019-03-22T03:10:59.944Z,19.50
2019-03-22T03:13:29.463Z,14.68
2019-03-22T03:16:04.889Z,17.52
2019-03-22T03:18:34.495Z,18.42
2019-03-22T03:21:05.115Z,16.37
2019-03-22T03:23:34.647Z,16.95
2019-03-22T03:26:04.211Z,23.38
2019-03-22T03:28:37.248Z,17.82
2019-03-22T03:31:05.112Z,20.92
2019-03-22T03:33:36.674Z,18.70
2019-03-22T03:36:07.278Z,17.27
2019-03-22T03:38:36.806Z,18.75
2019-03-22T03:41:06.417Z,25.08
2019-03-22T03:43:35.990Z,20.72
2019-03-22T03:46:05.517Z,19.17
2019-03-22T03:48:37.072Z,19.12
2019-03-22T03:51:13.501Z,19.12
2019-03-22T03:53:47.025Z,20.12
2019-03-22T03:56:16.696Z,19.00
2019-03-22T03:58:52.574Z,15.80
2019-03-22T04:01:17.456Z,19.45
2019-03-22T04:03:46.991Z,16.05
2019-03-22T04:06:18.465Z,15.48
2019-03-22T04:08:47.974Z,17.25
2019-03-22T04:11:17.398Z,15.35
2019-03-22T04:13:46.981Z,20.20
2019-03-22T04:16:16.397Z,16.32
2019-03-22T04:18:45.897Z,22.45
2019-03-22T04:21:16.343Z,15.58
2019-03-22T04:23:45.914Z,20.97
2019-03-22T04:26:15.367Z,19.05
2019-03-22T04:28:44.922Z,21.62
2019-03-22T04:31:14.419Z,18.05
2019-03-22T04:33:44.845Z,19.48
2019-03-22T04:36:14.352Z,19.37
2019-03-22T04:38:43.852Z,16.07
2019-03-22T04:41:14.320Z,18.73
2019-03-22T04:43:44.799Z,23.70
2019-03-22T04:46:15.615Z,16.27
2019-03-22T04:48:46.805Z,23.55
2019-03-22T04:51:16.748Z,16.35
2019-03-22T04:53:55.089Z,18.00
2019-03-22T04:56:26.098Z,17.10
2019-03-22T04:58:58.301Z,19.07
2019-03-22T05:01:29.434Z,18.45
2019-03-22T05:04:00.048Z,18.98
2019-03-22T05:06:30.388Z,18.40
2019-03-22T05:09:01.690Z,15.18
2019-03-22T05:11:31.697Z,18.85
2019-03-22T05:14:03.245Z,17.05
2019-03-22T05:16:36.146Z,19.62
2019-03-22T05:19:08.842Z,21.80
2019-03-22T05:21:39.265Z,18.20
2019-03-22T05:24:10.078Z,16.97
2019-03-22T05:26:40.785Z,18.85
2019-03-22T05:29:12.478Z,15.88
2019-03-22T05:32:01.357Z,22.02
2019-03-22T05:34:30.893Z,16.30
2019-03-22T05:37:00.370Z,16.85
2019-03-22T05:39:29.744Z,19.02
2019-03-22T05:41:59.176Z,17.00
2019-03-22T05:44:28.625Z,17.02
2019-03-22T05:46:58.222Z,19.62
2019-03-22T05:49:27.606Z,17.48
2019-03-22T05:51:57.064Z,17.50
2019-03-22T05:54:26.463Z,23.00
2019-03-22T05:56:56.888Z,20.35
2019-03-22T05:59:26.277Z,15.55
2019-03-22T06:01:55.813Z,18.82
2019-03-22T06:04:25.277Z,22.15
2019-03-22T06:06:54.701Z,20.68
2019-03-22T06:09:24.218Z,17.95
2019-03-22T06:11:53.743Z,14.35
2019-03-22T06:14:23.285Z,21.02
2019-03-22T06:16:52.665Z,18.90
2019-03-22T06:19:47.154Z,18.80
2019-03-22T06:22:17.757Z,24.60
2019-03-22T06:24:47.183Z,27.55
2019-03-22T06:27:16.702Z,24.90
2019-03-22T06:29:54.102Z,21.65
2019-03-22T06:32:21.694Z,20.45
2019-03-22T06:34:50.476Z,22.17
2019-03-22T06:37:20.011Z,20.88
2019-03-22T06:39:49.375Z,18.65
2019-03-22T06:42:24.821Z,17.92
2019-03-22T06:44:56.593Z,19.35
2019-03-22T06:47:30.983Z,22.75
2019-03-22T06:50:14.290Z,18.07
2019-03-22T06:52:42.743Z,17.10
2019-03-22T06:55:12.377Z,16.62
2019-03-22T06:57:42.002Z,18.82
2019-03-22T07:00:11.611Z,18.67
2019-03-22T07:02:41.109Z,22.52
2019-03-22T07:05:13.425Z,23.25
2019-03-22T07:07:41.811Z,22.25
2019-03-22T07:10:12.552Z,19.98
2019-03-22T07:12:42.070Z,20.25
2019-03-22T07:15:11.709Z,22.02
2019-03-22T07:17:41.242Z,22.67
2019-03-22T07:20:10.797Z,20.10
2019-03-22T07:22:40.156Z,24.70
2019-03-22T07:25:10.641Z,23.32
2019-03-22T07:27:40.236Z,23.55
2019-03-22T07:30:18.607Z,20.48
2019-03-22T07:32:41.172Z,25.72
2019-03-22T07:35:10.714Z,23.92
2019-03-22T07:37:40.185Z,22.85
2019-03-22T07:40:09.854Z,29.30
2019-03-22T07:42:39.405Z,26.55
2019-03-22T07:45:09.096Z,23.70
2019-03-22T07:47:38.756Z,24.77
2019-03-22T07:50:08.642Z,29.12
2019-03-22T07:52:38.189Z,25.75
2019-03-22T07:55:08.633Z,20.88
2019-03-22T07:57:38.243Z,24.40
2019-03-22T08:00:08.081Z,24.87
2019-03-22T08:02:37.569Z,28.47
2019-03-22T08:05:07.198Z,22.13
2019-03-22T08:07:37.602Z,19.82
2019-03-22T08:10:08.326Z,27.17
2019-03-22T08:12:37.910Z,19.67
2019-03-22T08:15:08.566Z,23.87
2019-03-22T08:17:38.369Z,25.15
2019-03-22T08:20:08.682Z,29.40
2019-03-22T08:22:38.254Z,26.75
2019-03-22T08:25:07.747Z,20.85
2019-03-22T08:27:37.250Z,28.38
2019-03-22T08:30:06.982Z,31.42
2019-03-22T08:32:36.548Z,23.75
2019-03-22T08:35:06.166Z,24.30
2019-03-22T08:37:35.653Z,26.93
2019-03-22T08:40:05.549Z,23.27
2019-03-22T08:42:37.115Z,21.52
2019-03-22T08:45:25.529Z,33.00
2019-03-22T08:47:55.030Z,22.75
2019-03-22T08:50:24.531Z,26.33
2019-03-22T08:52:56.690Z,21.42
2019-03-22T08:55:26.191Z,24.47
2019-03-22T08:57:55.619Z,24.07
2019-03-22T09:00:38.269Z,23.95
2019-03-22T09:02:56.383Z,24.00
2019-03-22T09:05:27.050Z,28.02
2019-03-22T09:07:56.645Z,25.37
2019-03-22T09:10:26.060Z,23.83
2019-03-22T09:12:55.597Z,29.75
2019-03-22T09:15:25.181Z,25.92
2019-03-22T09:17:54.631Z,24.77
2019-03-22T09:20:24.047Z,24.80
2019-03-22T09:22:53.607Z,21.87
2019-03-22T09:25:23.082Z,24.40
2019-03-22T09:27:52.538Z,31.15
2019-03-22T09:30:22.109Z,31.02
2019-03-22T09:32:51.644Z,26.23
2019-03-22T09:35:21.156Z,25.37
2019-03-22T09:37:50.637Z,24.70
2019-03-22T09:40:20.247Z,27.17
2019-03-22T09:42:49.741Z,26.80
2019-03-22T09:45:19.195Z,23.13
2019-03-22T09:47:48.588Z,26.97
2019-03-22T09:50:18.455Z,27.90
2019-03-22T09:52:47.933Z,28.05
2019-03-22T09:55:17.594Z,26.50
2019-03-22T09:57:49.316Z,24.10
2019-03-22T10:00:37.225Z,26.07
2019-03-22T10:03:08.408Z,25.50
2019-03-22T10:05:37.857Z,23.90
2019-03-22T10:08:07.396Z,23.62
2019-03-22T10:10:36.901Z,30.03
2019-03-22T10:13:06.391Z,27.70
2019-03-22T10:15:35.882Z,27.10
2019-03-22T10:18:05.919Z,26.03
2019-03-22T10:20:35.415Z,26.47
2019-03-22T10:23:04.954Z,31.30
2019-03-22T10:25:34.401Z,28.47
2019-03-22T10:28:03.894Z,32.00
2019-03-22T10:30:33.374Z,29.63
2019-03-22T10:33:03.877Z,25.47
2019-03-22T10:35:33.269Z,27.27
2019-03-22T10:38:04.747Z,24.57
2019-03-22T10:40:33.985Z,28.30
2019-03-22T10:43:03.462Z,28.83
2019-03-22T10:45:33.050Z,32.50
2019-03-22T10:48:02.531Z,29.90
2019-03-22T10:50:31.988Z,29.70
2019-03-22T10:53:01.527Z,29.47
2019-03-22T10:55:30.997Z,28.17
2019-03-22T10:58:00.529Z,27.33
2019-03-22T11:00:30.033Z,30.30
2019-03-22T11:03:00.509Z,29.60
2019-03-22T11:05:30.046Z,28.33
2019-03-22T11:07:59.458Z,30.13
2019-03-22T11:10:29.030Z,31.27
2019-03-22T11:12:58.579Z,29.80
2019-03-22T11:15:28.125Z,27.20
2019-03-22T11:17:57.608Z,27.67
2019-03-22T11:20:27.160Z,30.87
2019-03-22T11:22:56.715Z,31.83
2019-03-22T11:25:26.182Z,33.33
2019-03-22T11:27:55.674Z,32.87
2019-03-22T11:30:25.227Z,31.83
2019-03-22T11:32:54.726Z,29.63
2019-03-22T11:35:24.164Z,30.40
2019-03-22T11:37:53.779Z,28.83
2019-03-22T11:40:23.397Z,27.73
2019-03-22T11:42:53.069Z,28.43
2019-03-22T11:45:24.630Z,28.17
2019-03-22T11:47:54.290Z,31.50
2019-03-22T11:50:23.853Z,27.20
2019-03-22T11:52:53.402Z,28.00
2019-03-22T11:55:23.037Z,27.80
2019-03-22T11:57:52.581Z,30.40
2019-03-22T12:00:22.642Z,29.60
2019-03-22T12:02:52.205Z,27.13
2019-03-22T12:05:21.968Z,33.10
2019-03-22T12:07:51.506Z,32.13
2019-03-22T12:10:22.410Z,29.70
2019-03-22T12:12:52.031Z,27.93
2019-03-22T12:15:23.243Z,25.53
2019-03-22T12:17:54.801Z,26.73
2019-03-22T12:20:26.985Z,28.13
2019-03-22T12:22:56.458Z,31.47
2019-03-22T12:25:26.358Z,29.00
2019-03-22T12:27:55.901Z,30.10
2019-03-22T12:30:25.434Z,27.90
2019-03-22T12:32:55.002Z,30.67
2019-03-22T12:35:24.506Z,28.13
2019-03-22T12:37:53.893Z,31.57
2019-03-22T12:40:24.937Z,27.30
2019-03-22T12:42:56.510Z,29.30
2019-03-22T12:45:26.053Z,29.60
2019-03-22T12:47:55.510Z,27.17
2019-03-22T12:50:25.293Z,32.50
2019-03-22T12:52:54.758Z,30.23
2019-03-22T12:55:24.353Z,31.40
2019-03-22T12:57:53.902Z,32.00
2019-03-22T13:00:23.578Z,31.77
2019-03-22T13:02:53.533Z,30.30
2019-03-22T13:05:24.504Z,34.03
2019-03-22T13:07:55.280Z,26.53
2019-03-22T13:10:25.486Z,31.47
2019-03-22T13:12:56.113Z,35.13
2019-03-22T13:15:25.656Z,32.60
2019-03-22T13:18:14.004Z,29.30
2019-03-22T13:20:44.590Z,27.43
2019-03-22T13:23:15.155Z,27.03
2019-03-22T13:25:44.650Z,28.70
2019-03-22T13:28:14.165Z,29.27
2019-03-22T13:30:43.593Z,27.90
2019-03-22T13:33:15.061Z,33.53
2019-03-22T13:35:44.634Z,26.87
2019-03-22T13:38:14.168Z,27.90
2019-03-22T13:40:43.715Z,29.27
2019-03-22T13:43:13.181Z,30.30
2019-03-22T13:45:42.645Z,31.30
2019-03-22T13:48:12.130Z,29.50
2019-03-22T13:50:41.592Z,32.07
2019-03-22T13:53:12.164Z,31.17
2019-03-22T13:55:41.715Z,25.87
2019-03-22T13:58:11.101Z,27.30
2019-03-22T14:00:40.639Z,24.63
2019-03-22T14:03:10.130Z,24.10
2019-03-22T14:05:39.540Z,30.27
2019-03-22T14:08:09.085Z,23.23
2019-03-22T14:10:38.702Z,27.13
2019-03-22T14:13:10.051Z,27.67
2019-03-22T14:15:39.465Z,25.63
2019-03-22T14:18:09.970Z,24.47
2019-03-22T14:20:39.555Z,25.00
2019-03-22T14:23:09.082Z,22.20
2019-03-22T14:25:38.566Z,31.63
2019-03-22T14:28:08.136Z,27.43
2019-03-22T14:30:37.529Z,26.30
2019-03-22T14:33:13.410Z,26.43
2019-03-22T14:35:38.212Z,23.17
2019-03-22T14:38:07.715Z,22.70
2019-03-22T14:40:37.104Z,25.20
2019-03-22T14:43:06.682Z,28.33
2019-03-22T14:45:36.165Z,24.20
2019-03-22T14:48:05.736Z,24.03
2019-03-22T14:50:35.148Z,24.90
2019-03-22T14:53:04.657Z,27.00
2019-03-22T14:55:34.058Z,25.10
2019-03-22T14:58:03.563Z,28.03
2019-03-22T15:00:33.076Z,23.57
2019-03-22T15:03:04.291Z,31.17
2019-03-22T15:05:33.782Z,27.93
2019-03-22T15:08:03.276Z,27.80
2019-03-22T15:10:32.826Z,25.17
2019-03-22T15:13:02.499Z,24.73
2019-03-22T15:15:53.251Z,22.30
2019-03-22T15:18:31.753Z,24.87
2019-03-22T15:21:23.530Z,26.93
2019-03-22T15:24:07.787Z,22.23
2019-03-22T15:27:05.422Z,22.77
2019-03-22T15:29:56.688Z,23.43
2019-03-22T15:32:52.079Z,25.83
2019-03-22T15:35:42.715Z,27.87
2019-03-22T15:38:25.606Z,25.67
2019-03-22T15:40:55.187Z,27.63
2019-03-22T15:43:24.678Z,23.67
2019-03-22T15:45:54.451Z,28.03
2019-03-22T15:48:23.871Z,27.30
2019-03-22T15:50:53.447Z,25.17
2019-03-22T15:53:22.940Z,26.77
2019-03-22T15:55:52.625Z,25.20
2019-03-22T15:58:22.207Z,26.53
2019-03-22T16:00:51.825Z,26.73
2019-03-22T16:03:21.290Z,22.50
2019-03-22T16:05:51.932Z,26.87
2019-03-22T16:08:21.621Z,28.20
2019-03-22T16:10:51.180Z,25.83
2019-03-22T16:13:20.693Z,28.40
2019-03-22T16:15:50.238Z,28.70
2019-03-22T16:18:20.443Z,25.03
2019-03-22T16:20:56.113Z,30.00
2019-03-22T16:23:21.239Z,31.93
2019-03-22T16:25:53.965Z,31.23
2019-03-22T16:28:23.534Z,26.93
2019-03-22T16:30:52.999Z,26.97
2019-03-22T16:33:22.741Z,27.27
2019-03-22T16:35:59.239Z,26.87
2019-03-22T16:38:45.949Z,26.03
2019-03-22T16:41:15.409Z,28.23
2019-03-22T16:43:44.973Z,25.90
2019-03-22T16:46:14.597Z,28.73
2019-03-22T16:48:44.189Z,28.27
2019-03-22T16:51:13.761Z,30.60
2019-03-22T16:53:46.645Z,28.40
2019-03-22T16:56:17.205Z,27.17
2019-03-22T16:58:46.769Z,28.70
2019-03-22T17:01:16.458Z,28.90
2019-03-22T17:03:46.088Z,40.30
2019-03-22T17:06:15.677Z,29.53
2019-03-22T17:08:45.212Z,28.37
2019-03-22T17:11:14.720Z,28.43
2019-03-22T17:13:44.253Z,34.03
2019-03-22T17:16:13.826Z,28.90
2019-03-22T17:18:46.322Z,33.67
2019-03-22T17:21:15.793Z,31.93
2019-03-22T17:23:45.353Z,33.50
2019-03-22T17:26:14.921Z,29.20
2019-03-22T17:28:44.389Z,29.97
2019-03-22T17:31:25.330Z,33.00
2019-03-22T17:33:54.994Z,29.27
2019-03-22T17:36:25.622Z,33.10
2019-03-22T17:38:58.180Z,30.10
2019-03-22T17:41:27.844Z,34.93
2019-03-22T17:43:57.337Z,31.20
2019-03-22T17:46:26.930Z,32.27
2019-03-22T17:48:56.546Z,30.35
2019-03-22T17:51:27.647Z,31.87
2019-03-22T17:54:00.220Z,29.03
2019-03-22T17:56:29.930Z,33.67
2019-03-22T17:58:59.573Z,32.23
2019-03-22T18:01:29.128Z,25.97
2019-03-22T18:04:00.845Z,33.30
2019-03-22T18:06:29.987Z,32.23
2019-03-22T18:08:59.487Z,34.48
2019-03-22T18:11:31.834Z,31.80
2019-03-22T18:14:02.539Z,37.37
2019-03-22T18:16:32.106Z,32.97
2019-03-22T18:19:04.554Z,35.70
2019-03-22T18:21:34.145Z,48.17
2019-03-22T18:24:03.834Z,39.05
2019-03-22T18:26:33.374Z,39.93
2019-03-22T18:29:02.967Z,34.55
2019-03-22T18:31:32.543Z,31.82
2019-03-22T18:34:02.030Z,34.37
2019-03-22T18:36:31.570Z,52.37
2019-03-22T18:39:01.420Z,60.90
2019-03-22T18:41:31.092Z,41.30
2019-03-22T18:44:00.624Z,49.55
2019-03-22T18:46:30.100Z,53.23
2019-03-22T18:48:59.866Z,51.40
2019-03-22T18:51:29.414Z,53.10
2019-03-22T18:53:59.029Z,39.73
2019-03-22T18:56:28.559Z,40.73
2019-03-22T18:58:57.999Z,41.05
2019-03-22T19:01:27.622Z,38.50
2019-03-22T19:03:57.142Z,35.63
2019-03-22T19:06:26.729Z,34.58
2019-03-22T19:08:56.291Z,41.55
2019-03-22T19:11:25.850Z,40.05
2019-03-22T19:14:00.323Z,42.40
2019-03-22T19:16:29.722Z,43.10
2019-03-22T19:19:00.883Z,38.00
2019-03-22T19:21:30.442Z,44.03
2019-03-22T19:23:59.953Z,38.15
2019-03-22T19:28:49.548Z,38.83
2019-03-22T19:31:20.093Z,35.00
2019-03-22T19:33:49.677Z,41.15
2019-03-22T19:36:19.452Z,38.13
2019-03-22T19:38:48.967Z,39.67
2019-03-22T19:41:18.464Z,38.45
2019-03-22T19:43:48.270Z,37.03
2019-03-22T19:46:17.781Z,42.83
2019-03-22T19:48:47.311Z,43.38
2019-03-22T19:51:16.860Z,39.42
2019-03-22T19:53:46.372Z,44.27
2019-03-22T19:56:15.947Z,36.55
2019-03-22T19:58:45.436Z,45.17
2019-03-22T20:01:16.485Z,41.58
2019-03-22T20:03:47.016Z,42.23
2019-03-22T20:06:16.533Z,37.40
2019-03-22T20:08:48.474Z,37.70
2019-03-22T20:11:18.091Z,39.65
2019-03-22T20:13:47.715Z,39.63
2019-03-22T20:16:17.317Z,37.00
2019-03-22T20:18:46.994Z,43.23
2019-03-22T20:21:16.668Z,39.18
2019-03-22T20:23:53.503Z,39.85
2019-03-22T20:26:17.374Z,41.53
2019-03-22T20:28:46.898Z,37.93
2019-03-22T20:31:16.450Z,35.38
2019-03-22T20:33:46.076Z,34.85
2019-03-22T20:36:15.638Z,43.98
2019-03-22T20:38:45.277Z,40.50
2019-03-22T20:41:15.966Z,40.00
2019-03-22T20:43:45.482Z,41.13
2019-03-22T20:46:15.182Z,44.30
2019-03-22T20:48:44.683Z,42.65
2019-03-22T20:51:14.087Z,39.60
2019-03-22T20:53:43.559Z,40.57
2019-03-22T20:56:13.200Z,41.33
2019-03-22T20:58:42.764Z,37.23
2019-03-22T21:01:12.393Z,43.50
2019-03-22T21:03:42.194Z,37.93
2019-03-22T21:06:11.642Z,37.70
2019-03-22T21:08:41.303Z,41.77
2019-03-22T21:11:11.002Z,46.15
2019-03-22T21:13:40.836Z,40.52
2019-03-22T21:16:10.615Z,44.30
2019-03-22T21:18:40.422Z,39.88
2019-03-22T21:21:10.042Z,41.28
2019-03-22T21:23:39.554Z,41.35
2019-03-22T21:26:09.187Z,43.50
2019-03-22T21:28:38.660Z,38.58
2019-03-22T21:31:08.406Z,35.73
2019-03-22T21:33:37.942Z,37.55
2019-03-22T21:36:07.570Z,38.20
2019-03-22T21:38:37.105Z,40.00
2019-03-22T21:41:06.679Z,42.90
2019-03-22T21:43:36.185Z,40.17
2019-03-22T21:46:05.713Z,40.35
2019-03-22T21:48:35.290Z,39.60
2019-03-22T21:51:04.956Z,38.63
2019-03-22T21:53:34.369Z,38.60
2019-03-22T21:56:04.026Z,44.40
2019-03-22T21:58:33.493Z,32.63
2019-03-22T22:01:03.137Z,41.68
2019-03-22T22:03:32.666Z,39.10
2019-03-22T22:06:02.245Z,38.55
2019-03-22T22:08:31.681Z,34.18
2019-03-22T22:11:01.191Z,38.02
2019-03-22T22:13:30.832Z,36.88
2019-03-22T22:16:00.407Z,38.48
2019-03-22T22:18:30.086Z,37.42
2019-03-22T22:20:59.619Z,38.00
2019-03-22T22:23:29.208Z,37.17
2019-03-22T22:25:58.892Z,33.45
2019-03-22T22:28:28.381Z,44.33
2019-03-22T22:30:57.839Z,36.25
2019-03-22T22:33:27.270Z,45.73
2019-03-22T22:35:58.893Z,35.48
2019-03-22T22:38:28.086Z,41.20
2019-03-22T22:40:57.668Z,37.10
2019-03-22T22:43:27.191Z,39.00
2019-03-22T22:45:56.730Z,37.75
2019-03-22T22:48:26.381Z,38.40
2019-03-22T22:50:55.998Z,32.58
2019-03-22T22:53:25.494Z,40.52
2019-03-22T22:55:54.964Z,33.48
2019-03-22T22:58:24.523Z,38.20
2019-03-22T23:00:54.118Z,37.45
2019-03-22T23:03:23.623Z,35.05
2019-03-22T23:05:53.228Z,39.70
2019-03-22T23:08:22.742Z,38.33
2019-03-22T23:10:52.292Z,36.38
2019-03-22T23:13:21.797Z,39.15
2019-03-22T23:15:51.378Z,36.45
2019-03-22T23:18:20.869Z,38.17
2019-03-22T23:20:50.327Z,33.80
2019-03-22T23:23:19.793Z,36.80
2019-03-22T23:25:49.231Z,36.33
2019-03-22T23:28:18.723Z,38.17
2019-03-22T23:30:48.234Z,33.85
2019-03-22T23:33:17.782Z,38.75
2019-03-22T23:35:47.339Z,41.83
2019-03-22T23:38:16.898Z,35.35
2019-03-22T23:40:46.429Z,35.38
2019-03-22T23:43:15.933Z,38.50
2019-03-22T23:45:45.433Z,39.85
2019-03-22T23:48:14.922Z,41.05
2019-03-22T23:50:44.500Z,37.30
2019-03-22T23:53:14.057Z,37.53
2019-03-22T23:55:43.479Z,43.00
2019-03-22T23:58:16.722Z,39.85
